844  
SXUS55 KTFX 230959  
OSOTFX  
AREA AWOS OBSERVATIONS  
NATIONAL WEATHER SERVICE GREAT FALLS MT  
0359 AM MDT SAT JUN 23 2018  
 
METAR KPWD 231000Z AUTO 00000KT 10SM 15/15 A2968 RMK PLENTYWOOD  
METAR KPO1 231000Z AUTO 25005KT 10SM 16/12 A2970 RMK POPLAR  
METAR K1S3 231000Z AUTO 29004KT 15/15 A2976 RMK FORSYTH  
METAR KS71 231000Z AUTO 26007KT 10SM 17/14 A2977 RMK CHINOOK  
METAR K38S 231000Z AUTO 21004KT 10SM 09/06 A2999 RMK DEER LODGE  
METAR K6S5 231000Z AUTO 17011KT 10SM 12/09 A2996 RMK HAMILTON  
METAR KS59 231000Z AUTO 23003KT 7SM 12/12 A2990 RMK LIBBY  
 
CLICK HERE TO GO TO PREVIOUS BULLETINS.

The Nexlab MT Page Main Text Page